createdAt,value
2023-03-01T00:03:37.298Z,14.98
2023-03-01T00:06:25.045Z,15.50
2023-03-01T00:09:14.599Z,15.52
2023-03-01T00:12:01.736Z,14.93
2023-03-01T00:14:48.929Z,16.13
2023-03-01T00:17:36.017Z,15.50
2023-03-01T00:20:23.100Z,16.10
2023-03-01T00:23:10.167Z,15.85
2023-03-01T00:25:57.241Z,16.65
2023-03-01T00:28:45.461Z,16.48
2023-03-01T00:31:33.930Z,16.65
2023-03-01T00:34:21.010Z,16.00
2023-03-01T00:37:08.066Z,16.83
2023-03-01T00:39:55.176Z,17.48
2023-03-01T00:42:42.419Z,16.35
2023-03-01T00:45:30.467Z,17.02
2023-03-01T00:48:17.588Z,16.60
2023-03-01T00:51:19.904Z,17.67
2023-03-01T00:54:07.008Z,16.25
2023-03-01T00:56:54.037Z,17.00
2023-03-01T00:59:42.146Z,17.73
2023-03-01T01:02:29.412Z,17.55
2023-03-01T01:05:22.034Z,17.70
2023-03-01T01:08:09.091Z,16.98
2023-03-01T01:10:56.123Z,18.20
2023-03-01T01:13:45.813Z,17.63
2023-03-01T01:16:33.280Z,17.48
2023-03-01T01:19:20.690Z,18.77
2023-03-01T01:22:08.872Z,18.13
2023-03-01T01:24:55.966Z,18.08
2023-03-01T01:27:43.014Z,17.92
2023-03-01T01:30:30.034Z,18.30
2023-03-01T01:33:18.626Z,18.40
2023-03-01T01:36:07.043Z,16.75
2023-03-01T01:38:54.667Z,15.98
2023-03-01T01:41:43.402Z,16.88
2023-03-01T01:44:31.108Z,16.77
2023-03-01T01:47:21.295Z,18.40
2023-03-01T01:53:02.564Z,20.00
2023-03-01T01:55:58.137Z,19.05
2023-03-01T01:58:46.101Z,19.40
2023-03-01T02:01:33.326Z,18.50
2023-03-01T02:04:20.932Z,18.08
2023-03-01T02:07:16.973Z,18.65
2023-03-01T02:10:04.291Z,18.40
2023-03-01T02:12:52.294Z,20.20
2023-03-01T02:15:41.788Z,19.67
2023-03-01T02:18:28.919Z,19.63
2023-03-01T02:21:31.126Z,19.60
2023-03-01T02:24:33.096Z,20.08
2023-03-01T02:27:27.258Z,18.95
2023-03-01T02:30:14.429Z,18.75
2023-03-01T02:33:05.606Z,18.20
2023-03-01T02:35:55.802Z,19.85
2023-03-01T02:41:35.612Z,19.50
2023-03-01T02:44:23.183Z,18.20
2023-03-01T02:47:10.296Z,20.20
2023-03-01T02:49:57.322Z,20.08
2023-03-01T02:53:03.063Z,20.83
2023-03-01T02:55:51.051Z,20.20
2023-03-01T02:58:46.225Z,19.98
2023-03-01T03:01:39.262Z,21.45
2023-03-01T03:04:26.343Z,20.20
2023-03-01T03:07:13.400Z,21.13
2023-03-01T03:10:00.462Z,20.60
2023-03-01T03:12:57.075Z,20.25
2023-03-01T03:15:44.917Z,20.63
2023-03-01T03:18:32.239Z,20.05
2023-03-01T03:21:19.426Z,21.02
2023-03-01T03:24:06.559Z,19.65
2023-03-01T03:26:53.618Z,21.92
2023-03-01T03:29:40.640Z,20.75
2023-03-01T03:32:27.813Z,21.38
2023-03-01T03:35:14.850Z,20.65
2023-03-01T03:38:07.555Z,20.08
2023-03-01T03:41:08.316Z,22.00
2023-03-01T03:43:55.440Z,20.15
2023-03-01T03:46:42.463Z,20.70
2023-03-01T03:49:29.521Z,22.15
2023-03-01T03:52:17.641Z,20.38
2023-03-01T03:55:10.556Z,21.73
2023-03-01T03:58:08.089Z,20.92
2023-03-01T04:00:57.365Z,21.40
2023-03-01T04:03:47.779Z,21.83
2023-03-01T04:06:34.904Z,21.67
2023-03-01T04:09:21.934Z,22.02
2023-03-01T04:12:09.033Z,22.25
2023-03-01T04:14:56.069Z,22.27
2023-03-01T04:17:45.420Z,22.25
2023-03-01T04:20:35.903Z,21.48
2023-03-01T04:23:23.058Z,22.10
2023-03-01T04:26:10.457Z,22.35
2023-03-01T04:28:57.524Z,22.33
2023-03-01T04:31:44.621Z,22.88
2023-03-01T04:34:31.709Z,22.10
2023-03-01T04:37:18.786Z,21.95
2023-03-01T04:40:17.382Z,21.58
2023-03-01T04:43:05.389Z,20.88
2023-03-01T04:45:52.622Z,20.80
2023-03-01T04:48:42.083Z,21.30
2023-03-01T04:51:29.298Z,22.63
2023-03-01T04:54:16.278Z,23.00
2023-03-01T04:57:04.406Z,21.23
2023-03-01T04:59:51.414Z,20.83
2023-03-01T05:02:38.536Z,23.20
2023-03-01T05:05:30.113Z,21.58
2023-03-01T05:08:20.224Z,21.90
2023-03-01T05:11:10.171Z,21.25
2023-03-01T05:13:57.267Z,22.02
2023-03-01T05:16:44.415Z,23.05
2023-03-01T05:19:32.177Z,23.13
2023-03-01T05:22:20.303Z,20.63
2023-03-01T05:25:08.354Z,21.48
2023-03-01T05:27:55.379Z,22.08
2023-03-01T05:30:43.652Z,21.10
2023-03-01T05:33:30.756Z,19.08
2023-03-01T05:36:19.552Z,20.40
2023-03-01T05:39:06.604Z,20.33
2023-03-01T05:41:58.771Z,20.92
2023-03-01T05:44:45.820Z,21.60
2023-03-01T05:47:32.997Z,21.48
2023-03-01T05:50:26.406Z,21.50
2023-03-01T05:53:16.180Z,20.48
2023-03-01T05:56:07.198Z,23.35
2023-03-01T05:58:54.301Z,22.48
2023-03-01T06:01:41.857Z,23.00
2023-03-01T06:04:28.947Z,24.52
2023-03-01T06:07:16.021Z,22.10
2023-03-01T06:10:04.840Z,23.75
2023-03-01T06:12:51.877Z,21.70
2023-03-01T06:15:38.976Z,22.73
2023-03-01T06:18:26.093Z,22.58
2023-03-01T06:21:13.241Z,22.83
2023-03-01T06:24:00.262Z,21.38
2023-03-01T06:26:47.282Z,21.98
2023-03-01T06:29:34.288Z,21.15
2023-03-01T06:32:21.448Z,21.67
2023-03-01T06:35:11.160Z,21.38
2023-03-01T06:38:01.369Z,22.20
2023-03-01T06:40:55.324Z,22.17
2023-03-01T06:43:42.425Z,21.95
2023-03-01T06:46:29.741Z,21.63
2023-03-01T06:49:18.830Z,20.98
2023-03-01T06:52:05.962Z,20.83
2023-03-01T06:54:52.986Z,20.52
2023-03-01T06:57:40.969Z,22.40
2023-03-01T07:00:28.691Z,21.25
2023-03-01T07:03:15.817Z,21.65
2023-03-01T07:06:02.974Z,20.02
2023-03-01T07:08:50.402Z,21.70
2023-03-01T07:11:38.307Z,20.77
2023-03-01T07:14:26.714Z,19.77
2023-03-01T07:17:13.848Z,20.65
2023-03-01T07:20:00.861Z,20.15
2023-03-01T07:22:47.931Z,20.23
2023-03-01T07:25:35.034Z,19.30
2023-03-01T07:28:24.405Z,20.08
2023-03-01T07:31:11.470Z,20.23
2023-03-01T07:33:58.684Z,20.95
2023-03-01T07:36:46.423Z,20.45
2023-03-01T07:39:33.487Z,19.20
2023-03-01T07:42:20.545Z,18.85
2023-03-01T07:45:08.214Z,19.95
2023-03-01T07:47:56.527Z,20.55
2023-03-01T07:50:43.613Z,19.15
2023-03-01T07:53:32.331Z,19.58
2023-03-01T07:56:19.919Z,18.90
2023-03-01T07:59:07.027Z,19.95
2023-03-01T08:01:54.186Z,19.77
2023-03-01T08:04:41.279Z,20.35
2023-03-01T08:07:28.366Z,19.08
2023-03-01T08:10:15.550Z,18.65
2023-03-01T08:13:02.642Z,20.45
2023-03-01T08:15:50.429Z,18.95
2023-03-01T08:18:37.538Z,19.38
2023-03-01T08:21:24.630Z,19.33
2023-03-01T08:24:11.742Z,18.77
2023-03-01T08:26:58.918Z,19.20
2023-03-01T08:29:46.021Z,18.38
2023-03-01T08:32:37.643Z,18.52
2023-03-01T08:35:24.904Z,18.55
2023-03-01T08:38:11.980Z,17.00
2023-03-01T08:41:04.506Z,17.35
2023-03-01T08:43:52.029Z,17.35
2023-03-01T08:46:44.254Z,17.85
2023-03-01T08:49:31.382Z,16.27
2023-03-01T08:52:18.460Z,16.17
2023-03-01T08:55:08.773Z,17.67
2023-03-01T08:57:58.864Z,17.13
2023-03-01T09:00:45.944Z,16.02
2023-03-01T09:03:33.041Z,18.95
2023-03-01T09:06:20.545Z,16.42
2023-03-01T09:09:13.494Z,16.95
2023-03-01T09:12:00.626Z,16.73
2023-03-01T09:14:47.816Z,16.75
2023-03-01T09:17:40.586Z,16.95
2023-03-01T09:20:27.826Z,17.10
2023-03-01T09:23:16.836Z,16.48
2023-03-01T09:26:04.533Z,15.35
2023-03-01T09:28:54.834Z,16.08
2023-03-01T09:34:29.503Z,14.80
2023-03-01T09:37:18.762Z,15.05
2023-03-01T09:40:07.981Z,15.25
2023-03-01T09:43:04.766Z,15.23
2023-03-01T09:45:56.481Z,14.68
2023-03-01T09:48:50.189Z,15.18
2023-03-01T09:51:38.190Z,14.05
2023-03-01T09:54:25.527Z,13.05
2023-03-01T09:57:31.219Z,13.65
2023-03-01T10:00:25.562Z,11.63
2023-03-01T10:03:33.193Z,13.10
2023-03-01T10:06:35.028Z,11.38
2023-03-01T10:09:22.713Z,10.93
2023-03-01T10:12:13.264Z,11.23
2023-03-01T10:15:16.637Z,10.15
2023-03-01T10:18:14.837Z,10.48
2023-03-01T10:21:17.973Z,11.07
2023-03-01T10:24:23.492Z,9.73
2023-03-01T10:27:20.520Z,9.77
2023-03-01T10:30:37.262Z,9.32
2023-03-01T10:33:24.373Z,8.60
2023-03-01T10:36:11.634Z,9.27
2023-03-01T10:38:59.250Z,9.93
2023-03-01T10:42:19.416Z,9.27
2023-03-01T10:48:11.137Z,10.30
2023-03-01T10:51:01.288Z,10.15
2023-03-01T10:57:02.209Z,10.57
2023-03-01T11:00:04.583Z,10.13
2023-03-01T11:03:13.446Z,10.68
2023-03-01T11:06:03.486Z,10.93
2023-03-01T11:11:38.859Z,11.10
2023-03-01T11:14:29.503Z,10.48
2023-03-01T11:17:30.599Z,10.18
2023-03-01T11:20:32.142Z,11.45
2023-03-01T11:23:21.122Z,11.13
2023-03-01T11:26:12.428Z,11.88
2023-03-01T11:29:05.164Z,12.52
2023-03-01T11:31:57.799Z,12.20
2023-03-01T11:34:52.505Z,11.98
2023-03-01T11:37:56.617Z,12.43
2023-03-01T11:41:15.697Z,13.13
2023-03-01T11:44:15.080Z,12.57
2023-03-01T11:47:15.893Z,13.02
2023-03-01T11:50:16.809Z,14.02
2023-03-01T11:53:32.210Z,12.65
2023-03-01T11:56:27.496Z,12.52
2023-03-01T11:59:37.318Z,11.75
2023-03-01T12:02:58.064Z,13.68
2023-03-01T12:06:25.273Z,12.60
2023-03-01T12:09:40.231Z,11.88
2023-03-01T12:12:31.974Z,13.00
2023-03-01T12:15:45.365Z,14.10
2023-03-01T12:18:58.608Z,13.68
2023-03-01T12:21:59.965Z,12.77
2023-03-01T12:25:13.430Z,13.52
2023-03-01T12:28:26.800Z,13.77
2023-03-01T12:31:29.438Z,13.98
2023-03-01T12:35:01.383Z,14.15
2023-03-01T12:38:11.570Z,13.18
2023-03-01T12:44:22.679Z,12.20
2023-03-01T12:47:15.770Z,13.35
2023-03-01T12:50:12.602Z,13.90
2023-03-01T12:52:59.762Z,15.02
2023-03-01T12:55:47.915Z,14.23
2023-03-01T12:59:00.450Z,14.38
2023-03-01T13:02:14.954Z,13.73
2023-03-01T13:05:03.928Z,13.13
2023-03-01T13:08:11.773Z,13.02
2023-03-01T13:11:05.416Z,13.18
2023-03-01T13:13:55.558Z,12.43
2023-03-01T13:19:37.365Z,12.95
2023-03-01T13:22:31.491Z,12.77
2023-03-01T13:25:21.690Z,11.82
2023-03-01T13:28:43.483Z,12.88
2023-03-01T13:31:30.633Z,11.77
2023-03-01T13:34:47.413Z,12.35
2023-03-01T13:37:38.564Z,12.80
2023-03-01T13:40:25.624Z,12.02
2023-03-01T13:43:40.087Z,11.27
2023-03-01T13:46:27.263Z,12.73
2023-03-01T13:49:21.076Z,11.93
2023-03-01T13:53:06.397Z,11.65
2023-03-01T13:56:01.056Z,11.00
2023-03-01T13:58:53.571Z,11.20
2023-03-01T14:01:43.381Z,10.70
2023-03-01T14:04:36.828Z,11.48
2023-03-01T14:07:25.450Z,10.82
2023-03-01T14:10:13.925Z,10.65
2023-03-01T14:13:26.375Z,12.77
2023-03-01T14:16:25.385Z,11.68
2023-03-01T14:19:32.970Z,12.75
2023-03-01T14:22:30.116Z,12.18
2023-03-01T14:25:27.164Z,12.43
2023-03-01T14:28:25.448Z,12.77
2023-03-01T14:31:52.113Z,11.98
2023-03-01T14:34:51.405Z,11.90
2023-03-01T14:37:38.504Z,11.48
2023-03-01T14:40:35.625Z,12.27
2023-03-01T14:43:25.777Z,11.57
2023-03-01T14:49:13.512Z,11.98
2023-03-01T14:52:04.749Z,12.98
2023-03-01T14:54:54.583Z,12.57
2023-03-01T14:57:45.431Z,11.50
2023-03-01T15:00:35.106Z,11.77
2023-03-01T15:03:29.736Z,11.60
2023-03-01T15:06:22.987Z,11.35
2023-03-01T15:09:17.545Z,11.60
2023-03-01T15:12:41.475Z,12.25
2023-03-01T15:15:35.901Z,12.88
2023-03-01T15:18:28.831Z,11.10
2023-03-01T15:21:39.969Z,11.75
2023-03-01T15:24:29.863Z,12.05
2023-03-01T15:27:22.924Z,11.35
2023-03-01T15:30:19.770Z,11.93
2023-03-01T15:33:28.339Z,11.73
2023-03-01T15:36:37.640Z,11.80
2023-03-01T15:39:55.402Z,12.38
2023-03-01T15:42:42.581Z,11.85
2023-03-01T15:45:35.137Z,12.38
2023-03-01T15:48:22.599Z,11.10
2023-03-01T15:51:15.117Z,12.40
2023-03-01T15:54:15.841Z,12.68
2023-03-01T15:57:03.039Z,11.45
2023-03-01T15:59:50.851Z,12.75
2023-03-01T16:02:39.034Z,12.18
2023-03-01T16:05:31.788Z,12.40
2023-03-01T16:08:20.145Z,12.00
2023-03-01T16:11:15.589Z,12.27
2023-03-01T16:14:02.902Z,12.82
2023-03-01T16:16:50.317Z,12.25
2023-03-01T16:19:39.699Z,12.75
2023-03-01T16:22:28.470Z,12.77
2023-03-01T16:25:19.107Z,12.65
2023-03-01T16:28:10.285Z,12.27
2023-03-01T16:30:57.570Z,12.90
2023-03-01T16:33:50.543Z,12.43
2023-03-01T16:36:38.004Z,13.00
2023-03-01T16:39:25.315Z,12.65
2023-03-01T16:42:21.892Z,13.25
2023-03-01T16:45:22.910Z,13.00
2023-03-01T16:48:11.658Z,12.88
2023-03-01T16:51:01.140Z,13.45
2023-03-01T16:53:48.532Z,13.13
2023-03-01T16:56:38.646Z,13.30
2023-03-01T17:02:20.203Z,13.15
2023-03-01T17:05:10.071Z,13.45
2023-03-01T17:07:58.337Z,13.98
2023-03-01T17:10:46.086Z,15.02
2023-03-01T17:13:33.683Z,13.35
2023-03-01T17:16:22.241Z,15.00
2023-03-01T17:19:09.857Z,13.07
2023-03-01T17:21:57.260Z,13.57
2023-03-01T17:24:45.521Z,14.88
2023-03-01T17:27:36.036Z,14.90
2023-03-01T17:30:24.928Z,14.10
2023-03-01T17:33:13.984Z,14.40
2023-03-01T17:36:02.479Z,13.90
2023-03-01T17:38:50.744Z,14.45
2023-03-01T17:41:38.836Z,14.20
2023-03-01T17:44:26.866Z,14.38
2023-03-01T17:47:14.553Z,14.05
2023-03-01T17:50:02.602Z,14.00
2023-03-01T17:52:50.072Z,14.55
2023-03-01T17:55:38.531Z,15.80
2023-03-01T17:58:25.996Z,14.15
2023-03-01T18:01:16.406Z,15.60
2023-03-01T18:04:03.700Z,15.38
2023-03-01T18:06:50.827Z,14.85
2023-03-01T18:09:38.062Z,14.98
2023-03-01T18:12:25.530Z,15.45
2023-03-01T18:15:13.077Z,16.02
2023-03-01T18:18:04.858Z,16.17
2023-03-01T18:21:02.613Z,15.35
2023-03-01T18:23:50.225Z,16.25
2023-03-01T18:26:40.214Z,15.23
2023-03-01T18:29:28.963Z,15.77
2023-03-01T18:32:16.675Z,16.58
2023-03-01T18:35:04.479Z,16.55
2023-03-01T18:37:53.643Z,15.15
2023-03-01T18:40:43.755Z,15.90
2023-03-01T18:43:34.724Z,16.52
2023-03-01T18:46:23.326Z,17.02
2023-03-01T18:49:11.856Z,16.13
2023-03-01T18:52:00.129Z,17.17
2023-03-01T18:54:48.119Z,17.73
2023-03-01T18:57:37.981Z,18.13
2023-03-01T19:00:25.999Z,18.20
2023-03-01T19:03:13.774Z,16.35
2023-03-01T19:06:02.676Z,19.13
2023-03-01T19:08:51.404Z,18.58
2023-03-01T19:11:39.420Z,18.00
2023-03-01T19:14:27.764Z,18.20
2023-03-01T19:17:16.631Z,17.83
2023-03-01T19:20:06.256Z,18.88
2023-03-01T19:22:54.278Z,17.75
2023-03-01T19:25:42.466Z,18.33
2023-03-01T19:28:30.585Z,17.83
2023-03-01T19:31:24.845Z,17.75
2023-03-01T19:34:13.622Z,19.33
2023-03-01T19:37:03.898Z,18.48
2023-03-01T19:39:52.719Z,17.77
2023-03-01T19:42:41.261Z,18.83
2023-03-01T19:45:33.590Z,18.70
2023-03-01T19:48:22.567Z,17.95
2023-03-01T19:51:10.709Z,17.92
2023-03-01T19:53:59.999Z,18.35
2023-03-01T19:56:49.352Z,18.17
2023-03-01T19:59:37.862Z,18.67
2023-03-01T20:02:28.381Z,17.45
2023-03-01T20:05:17.288Z,18.15
2023-03-01T20:08:09.045Z,17.85
2023-03-01T20:11:05.369Z,17.17
2023-03-01T20:13:54.391Z,17.92
2023-03-01T20:16:43.016Z,17.70
2023-03-01T20:19:31.801Z,18.33
2023-03-01T20:22:22.293Z,17.50
2023-03-01T20:25:12.262Z,17.75
2023-03-01T20:28:00.368Z,18.70
2023-03-01T20:30:49.078Z,18.40
2023-03-01T20:33:38.253Z,17.15
2023-03-01T20:36:28.370Z,16.02
2023-03-01T20:39:16.308Z,17.63
2023-03-01T20:42:04.555Z,16.83
2023-03-01T20:44:52.464Z,17.13
2023-03-01T20:47:40.967Z,17.35
2023-03-01T20:50:30.789Z,18.08
2023-03-01T20:53:23.214Z,17.15
2023-03-01T20:56:16.303Z,17.27
2023-03-01T20:59:06.384Z,16.92
2023-03-01T21:04:43.459Z,16.55
2023-03-01T21:07:30.902Z,16.98
2023-03-01T21:10:18.366Z,17.50
2023-03-01T21:13:06.037Z,17.25
2023-03-01T21:15:55.825Z,17.27
2023-03-01T21:18:43.407Z,16.17
2023-03-01T21:21:31.657Z,16.67
2023-03-01T21:24:19.024Z,16.75
2023-03-01T21:27:10.018Z,17.13
2023-03-01T21:29:57.594Z,16.70
2023-03-01T21:32:45.133Z,17.90
2023-03-01T21:35:32.630Z,17.20
2023-03-01T21:38:19.952Z,16.42
2023-03-01T21:41:13.504Z,16.77
2023-03-01T21:44:06.255Z,15.93
2023-03-01T21:46:54.017Z,16.33
2023-03-01T21:49:41.294Z,16.90
2023-03-01T21:52:28.554Z,16.80
2023-03-01T21:55:16.187Z,16.33
2023-03-01T21:58:03.636Z,16.35
2023-03-01T22:00:54.590Z,14.93
2023-03-01T22:03:47.546Z,16.83
2023-03-01T22:06:43.500Z,16.33
2023-03-01T22:09:32.104Z,16.35
2023-03-01T22:12:19.180Z,17.15
2023-03-01T22:15:06.913Z,16.83
2023-03-01T22:17:54.720Z,16.45
2023-03-01T22:20:42.163Z,16.67
2023-03-01T22:23:29.237Z,15.00
2023-03-01T22:26:40.360Z,17.90
2023-03-01T22:29:29.788Z,14.65
2023-03-01T22:32:16.988Z,16.33
2023-03-01T22:35:04.370Z,16.10
2023-03-01T22:37:51.872Z,15.73
2023-03-01T22:40:39.216Z,16.88
2023-03-01T22:43:28.242Z,15.98
2023-03-01T22:46:18.191Z,16.38
2023-03-01T22:49:05.520Z,16.80
2023-03-01T22:51:53.466Z,17.20
2023-03-01T22:54:40.625Z,17.02
2023-03-01T22:57:27.688Z,16.80
2023-03-01T23:00:15.035Z,17.58
2023-03-01T23:03:02.596Z,17.08
2023-03-01T23:05:49.770Z,17.35
2023-03-01T23:08:37.347Z,17.83
2023-03-01T23:11:25.763Z,17.73
2023-03-01T23:14:12.967Z,17.50
2023-03-01T23:17:01.773Z,17.17
2023-03-01T23:19:51.393Z,18.48
2023-03-01T23:22:38.442Z,17.77
2023-03-01T23:25:25.634Z,18.42
2023-03-01T23:28:12.668Z,18.17
2023-03-01T23:31:02.903Z,17.30
2023-03-01T23:36:44.940Z,17.05
2023-03-01T23:39:32.644Z,17.88
2023-03-01T23:42:19.733Z,17.30
2023-03-01T23:45:07.852Z,17.65
2023-03-01T23:47:55.792Z,18.33
2023-03-01T23:50:42.943Z,17.85
2023-03-01T23:53:30.000Z,18.48
2023-03-01T23:56:17.051Z,18.85
2023-03-01T23:59:09.273Z,18.58
